NKS1930 KDFW-KGYR
Flight info
| Callsign | NKS1930 |
|---|---|
| Flight time | N/A |
| Altitude | 34000 |
| Route | NELYN6 HOARY JCT EWM SSO SUNSS8 |
| Aircraft | A319/M-SDE3FGHIRWY/LB1 |
Departure
| Time | 2026-05-07 23:42 |
|---|---|
| Airport | Dallas Fort Worth International Airport (KDFW) |
Arrival
| Time | N/A |
|---|---|
| Airport | Phoenix Goodyear Airport (KGYR) |
| Time | Latitude | Longitude | Altitude | Speed | Heading |
|---|---|---|---|---|---|
| 2026-05-07 23:13 | 32.88796 | -97.03653 | 584 ft | 0 kts | 322° |
| 2026-05-07 23:28 | 32.88788 | -97.03646 | 584 ft | 2 kts | 323° |
| 2026-05-07 23:28 | 32.88774 | -97.03634 | 584 ft | 2 kts | 327° |
| 2026-05-07 23:29 | 32.88760 | -97.03624 | 584 ft | 2 kts | 336° |
| 2026-05-07 23:29 | 32.88745 | -97.03618 | 584 ft | 2 kts | 10° |
| 2026-05-07 23:29 | 32.88731 | -97.03626 | 584 ft | 1 kts | 56° |
| 2026-05-07 23:29 | 32.88729 | -97.03630 | 584 ft | 0 kts | 58° |
| 2026-05-07 23:32 | 32.88727 | -97.03622 | 584 ft | 4 kts | 93° |
| 2026-05-07 23:32 | 32.88700 | -97.03575 | 584 ft | 9 kts | 136° |
| 2026-05-07 23:32 | 32.88636 | -97.03563 | 584 ft | 11 kts | 186° |
| 2026-05-07 23:33 | 32.88603 | -97.03642 | 585 ft | 12 kts | 270° |
| 2026-05-07 23:33 | 32.88605 | -97.03735 | 588 ft | 11 kts | 271° |
| 2026-05-07 23:33 | 32.88605 | -97.03806 | 594 ft | 5 kts | 271° |
| 2026-05-07 23:33 | 32.88606 | -97.03818 | 595 ft | 0 kts | 271° |
| 2026-05-07 23:34 | 32.88605 | -97.03843 | 598 ft | 8 kts | 270° |
| 2026-05-07 23:34 | 32.88605 | -97.03937 | 601 ft | 13 kts | 270° |
| 2026-05-07 23:34 | 32.88606 | -97.04050 | 601 ft | 15 kts | 270° |
| 2026-05-07 23:35 | 32.88608 | -97.04177 | 601 ft | 16 kts | 271° |
| 2026-05-07 23:35 | 32.88606 | -97.04317 | 598 ft | 18 kts | 269° |
| 2026-05-07 23:35 | 32.88606 | -97.04448 | 592 ft | 15 kts | 270° |
| 2026-05-07 23:35 | 32.88607 | -97.04589 | 590 ft | 18 kts | 270° |
| 2026-05-07 23:36 | 32.88608 | -97.04748 | 587 ft | 20 kts | 270° |
| 2026-05-07 23:36 | 32.88602 | -97.04879 | 589 ft | 8 kts | 236° |
| 2026-05-07 23:36 | 32.88546 | -97.04893 | 589 ft | 9 kts | 180° |
| 2026-05-07 23:36 | 32.88503 | -97.04893 | 589 ft | 10 kts | 180° |
| 2026-05-07 23:37 | 32.88415 | -97.04892 | 589 ft | 15 kts | 180° |
| 2026-05-07 23:37 | 32.88264 | -97.04895 | 589 ft | 18 kts | 181° |
| 2026-05-07 23:37 | 32.88135 | -97.04896 | 590 ft | 20 kts | 179° |
| 2026-05-07 23:37 | 32.88003 | -97.04897 | 587 ft | 14 kts | 180° |
| 2026-05-07 23:38 | 32.87931 | -97.04897 | 586 ft | 16 kts | 180° |
| 2026-05-07 23:38 | 32.87911 | -97.04954 | 585 ft | 9 kts | 270° |
| 2026-05-07 23:38 | 32.87911 | -97.04980 | 585 ft | 1 kts | 270° |
| 2026-05-07 23:39 | 32.87912 | -97.05016 | 586 ft | 9 kts | 270° |
| 2026-05-07 23:40 | 32.87929 | -97.05088 | 588 ft | 9 kts | 329° |
| 2026-05-07 23:40 | 32.87949 | -97.05091 | 588 ft | 0 kts | 1° |
| 2026-05-07 23:40 | 32.87950 | -97.05091 | 588 ft | 1 kts | 1° |
| 2026-05-07 23:41 | 32.88079 | -97.05089 | 590 ft | 45 kts | 0° |
| 2026-05-07 23:41 | 32.88599 | -97.05085 | 588 ft | 104 kts | 0° |
| 2026-05-07 23:41 | 32.89506 | -97.05082 | 600 ft | 155 kts | 0° |
| 2026-05-07 23:41 | 32.90715 | -97.05077 | 814 ft | 180 kts | 1° |
| 2026-05-07 23:42 | 32.91961 | -97.04957 | 1440 ft | 183 kts | 8° |
| 2026-05-07 23:42 | 32.93226 | -97.04926 | 2114 ft | 183 kts | 359° |
| 2026-05-07 23:42 | 32.94543 | -97.05103 | 2431 ft | 206 kts | 343° |
| 2026-05-07 23:42 | 32.95948 | -97.05805 | 2717 ft | 232 kts | 337° |
| 2026-05-07 23:43 | 32.97521 | -97.06552 | 3188 ft | 253 kts | 339° |
| 2026-05-07 23:43 | 32.99182 | -97.07317 | 4024 ft | 258 kts | 335° |
| 2026-05-07 23:43 | 33.00541 | -97.08701 | 4949 ft | 262 kts | 303° |
| 2026-05-07 23:43 | 33.01057 | -97.10752 | 5934 ft | 261 kts | 270° |
| 2026-05-07 23:44 | 33.00957 | -97.12899 | 6975 ft | 257 kts | 265° |
| 2026-05-07 23:44 | 33.00824 | -97.15013 | 7934 ft | 256 kts | 265° |
| 2026-05-07 23:44 | 33.00687 | -97.17131 | 8846 ft | 257 kts | 264° |
| 2026-05-07 23:44 | 33.00502 | -97.19285 | 9524 ft | 265 kts | 262° |
| 2026-05-07 23:45 | 33.00273 | -97.21479 | 10250 ft | 271 kts | 261° |
| 2026-05-07 23:45 | 32.99686 | -97.23711 | 10459 ft | 295 kts | 244° |
| 2026-05-07 23:45 | 32.98447 | -97.25779 | 10610 ft | 321 kts | 228° |
| 2026-05-07 23:45 | 32.96645 | -97.27512 | 10778 ft | 345 kts | 214° |
| 2026-05-07 23:46 | 32.94411 | -97.28699 | 11250 ft | 359 kts | 200° |
| 2026-05-07 23:46 | 32.91903 | -97.29174 | 11824 ft | 371 kts | 186° |
| 2026-05-07 23:46 | 32.89290 | -97.29029 | 12425 ft | 378 kts | 181° |
| 2026-05-07 23:46 | 32.86650 | -97.28858 | 13020 ft | 382 kts | 182° |
| 2026-05-07 23:47 | 32.84019 | -97.28721 | 13602 ft | 386 kts | 183° |
| 2026-05-07 23:47 | 32.81325 | -97.28598 | 14166 ft | 389 kts | 183° |
| 2026-05-07 23:47 | 32.78607 | -97.28472 | 14739 ft | 392 kts | 182° |
| 2026-05-07 23:47 | 32.75878 | -97.28046 | 15330 ft | 399 kts | 176° |
| 2026-05-07 23:48 | 32.73132 | -97.27504 | 15933 ft | 400 kts | 176° |
| 2026-05-07 23:48 | 32.70374 | -97.26951 | 16530 ft | 402 kts | 176° |
| 2026-05-07 23:48 | 32.67603 | -97.26390 | 17127 ft | 404 kts | 176° |
| 2026-05-07 23:48 | 32.64814 | -97.25828 | 17696 ft | 407 kts | 176° |
| 2026-05-07 23:49 | 32.62012 | -97.25266 | 18288 ft | 410 kts | 176° |
| 2026-05-07 23:49 | 32.59189 | -97.24701 | 18769 ft | 412 kts | 176° |
| 2026-05-07 23:49 | 32.56347 | -97.24132 | 19223 ft | 416 kts | 177° |
| 2026-05-07 23:49 | 32.53488 | -97.23561 | 19655 ft | 419 kts | 177° |
| 2026-05-07 23:50 | 32.50598 | -97.22986 | 20091 ft | 422 kts | 177° |
| 2026-05-07 23:50 | 32.47688 | -97.22408 | 20514 ft | 426 kts | 177° |
| 2026-05-07 23:50 | 32.44759 | -97.21827 | 20926 ft | 429 kts | 178° |
| 2026-05-07 23:50 | 32.41802 | -97.21240 | 21311 ft | 432 kts | 178° |
| 2026-05-07 23:51 | 32.38824 | -97.20648 | 21600 ft | 437 kts | 178° |
| 2026-05-07 23:51 | 32.35808 | -97.20050 | 21935 ft | 441 kts | 178° |
| 2026-05-07 23:51 | 32.32768 | -97.19448 | 22311 ft | 445 kts | 178° |
| 2026-05-07 23:51 | 32.29703 | -97.18906 | 22674 ft | 444 kts | 182° |
| 2026-05-07 23:52 | 32.26644 | -97.18857 | 23030 ft | 437 kts | 192° |
| 2026-05-07 23:52 | 32.23631 | -97.19245 | 23391 ft | 436 kts | 195° |
| 2026-05-07 23:52 | 32.20607 | -97.19661 | 23725 ft | 439 kts | 195° |
| 2026-05-07 23:52 | 32.17565 | -97.20071 | 24044 ft | 441 kts | 194° |
| 2026-05-07 23:53 | 32.14515 | -97.20475 | 24404 ft | 441 kts | 194° |
| 2026-05-07 23:53 | 32.11467 | -97.20877 | 24783 ft | 440 kts | 194° |
| 2026-05-07 23:53 | 32.08431 | -97.21280 | 25180 ft | 439 kts | 194° |
| 2026-05-07 23:53 | 32.05397 | -97.21686 | 25541 ft | 439 kts | 194° |
| 2026-05-07 23:54 | 32.02403 | -97.22089 | 25880 ft | 439 kts | 194° |
| 2026-05-07 23:54 | 31.99365 | -97.22496 | 26217 ft | 439 kts | 193° |
| 2026-05-07 23:54 | 31.96324 | -97.22902 | 26545 ft | 440 kts | 193° |
| 2026-05-07 23:54 | 31.93283 | -97.23307 | 26857 ft | 440 kts | 193° |
| 2026-05-07 23:55 | 31.90234 | -97.23714 | 27164 ft | 441 kts | 193° |
| 2026-05-07 23:55 | 31.87185 | -97.24119 | 27466 ft | 441 kts | 193° |
| 2026-05-07 23:55 | 31.84135 | -97.24524 | 27722 ft | 442 kts | 193° |
| 2026-05-07 23:55 | 31.81078 | -97.24929 | 28024 ft | 442 kts | 193° |
| 2026-05-07 23:56 | 31.78024 | -97.25331 | 28418 ft | 440 kts | 193° |
| 2026-05-07 23:56 | 31.74986 | -97.25729 | 28835 ft | 438 kts | 193° |
| 2026-05-07 23:56 | 31.71959 | -97.26129 | 29257 ft | 436 kts | 193° |
| 2026-05-07 23:56 | 31.68946 | -97.26530 | 29689 ft | 434 kts | 193° |
| 2026-05-07 23:57 | 31.66006 | -97.27152 | 30115 ft | 425 kts | 201° |
| 2026-05-07 23:57 | 31.63254 | -97.28287 | 30482 ft | 418 kts | 207° |
| 2026-05-07 23:57 | 31.60559 | -97.29563 | 30790 ft | 417 kts | 207° |
| 2026-05-07 23:57 | 31.57873 | -97.30833 | 31085 ft | 416 kts | 208° |
| 2026-05-07 23:58 | 31.55185 | -97.32101 | 31384 ft | 417 kts | 209° |
| 2026-05-07 23:58 | 31.52536 | -97.33350 | 31694 ft | 416 kts | 209° |
| 2026-05-07 23:58 | 31.49854 | -97.34613 | 32044 ft | 415 kts | 209° |
| 2026-05-07 23:58 | 31.47180 | -97.35874 | 32406 ft | 413 kts | 209° |
| 2026-05-07 23:59 | 31.44520 | -97.37129 | 32780 ft | 411 kts | 209° |
| 2026-05-07 23:59 | 31.41871 | -97.38377 | 33155 ft | 410 kts | 210° |
| 2026-05-07 23:59 | 31.39233 | -97.39615 | 33531 ft | 408 kts | 210° |
| 2026-05-07 23:59 | 31.36603 | -97.40849 | 33909 ft | 407 kts | 210° |
| 2026-05-08 00:00 | 31.33971 | -97.42082 | 34028 ft | 406 kts | 210° |
| 2026-05-08 00:00 | 31.31354 | -97.43304 | 34041 ft | 405 kts | 210° |
| 2026-05-08 00:00 | 31.26132 | -97.45743 | 34037 ft | 403 kts | 209° |
| 2026-05-08 00:01 | 31.20929 | -97.48181 | 34038 ft | 403 kts | 209° |
| 2026-05-08 00:01 | 31.15724 | -97.50617 | 34027 ft | 403 kts | 209° |
| 2026-05-08 00:02 | 31.10516 | -97.53054 | 34029 ft | 403 kts | 209° |
| 2026-05-08 00:02 | 31.05307 | -97.55481 | 34034 ft | 403 kts | 209° |
| 2026-05-08 00:03 | 31.00125 | -97.57892 | 34013 ft | 403 kts | 209° |
| 2026-05-08 00:03 | 30.94920 | -97.60311 | 34028 ft | 403 kts | 209° |
| 2026-05-08 00:04 | 30.89714 | -97.62723 | 34051 ft | 402 kts | 209° |
| 2026-05-08 00:04 | 30.84514 | -97.65132 | 34062 ft | 402 kts | 209° |
| 2026-05-08 00:05 | 30.79325 | -97.67544 | 34060 ft | 402 kts | 209° |
| 2026-05-08 00:05 | 30.74132 | -97.69946 | 34067 ft | 401 kts | 209° |
| 2026-05-08 00:06 | 30.68944 | -97.72343 | 34049 ft | 401 kts | 209° |
| 2026-05-08 00:06 | 30.63796 | -97.74767 | 34065 ft | 397 kts | 213° |
| 2026-05-08 00:07 | 30.61533 | -97.76496 | 34073 ft | 386 kts | 226° |
| 2026-05-08 00:07 | 30.59757 | -97.78785 | 34076 ft | 380 kts | 238° |
| 2026-05-08 00:07 | 30.58543 | -97.81473 | 34096 ft | 384 kts | 250° |
| 2026-05-08 00:07 | 30.57923 | -97.84516 | 34090 ft | 393 kts | 262° |
| 2026-05-08 00:08 | 30.57915 | -97.88829 | 34092 ft | 403 kts | 267° |